sensor_id;sensor_type;location;lat;lon;timestamp;temperature;humidity
23267;DHT22;11802;53.160;8.214;2022-08-19T00:00:27;15.80;99.90
23267;DHT22;11802;53.160;8.214;2022-08-19T00:02:53;15.80;99.90
23267;DHT22;11802;53.160;8.214;2022-08-19T00:05:21;15.80;99.90
23267;DHT22;11802;53.160;8.214;2022-08-19T00:07:46;15.90;99.90
23267;DHT22;11802;53.160;8.214;2022-08-19T00:10:14;15.90;99.90
23267;DHT22;11802;53.160;8.214;2022-08-19T00:12:40;15.90;99.90
23267;DHT22;11802;53.160;8.214;2022-08-19T00:15:08;15.80;99.90
23267;DHT22;11802;53.160;8.214;2022-08-19T00:17:39;15.80;99.90
23267;DHT22;11802;53.160;8.214;2022-08-19T00:20:05;15.80;99.90
23267;DHT22;11802;53.160;8.214;2022-08-19T00:22:31;15.80;99.90
23267;DHT22;11802;53.160;8.214;2022-08-19T00:24:58;15.70;99.90
23267;DHT22;11802;53.160;8.214;2022-08-19T00:27:23;15.70;99.90
23267;DHT22;11802;53.160;8.214;2022-08-19T00:29:49;15.60;99.90
23267;DHT22;11802;53.160;8.214;2022-08-19T00:32:16;15.60;99.90
23267;DHT22;11802;53.160;8.214;2022-08-19T00:34:41;15.60;99.90
23267;DHT22;11802;53.160;8.214;2022-08-19T00:37:07;15.60;99.90
23267;DHT22;11802;53.160;8.214;2022-08-19T00:39:32;15.50;99.90
23267;DHT22;11802;53.160;8.214;2022-08-19T00:41:58;15.50;99.90
23267;DHT22;11802;53.160;8.214;2022-08-19T00:44:26;15.50;99.90
23267;DHT22;11802;53.160;8.214;2022-08-19T00:46:54;15.50;99.90
23267;DHT22;11802;53.160;8.214;2022-08-19T00:49:24;15.40;99.90
23267;DHT22;11802;53.160;8.214;2022-08-19T00:51:54;15.40;99.90
23267;DHT22;11802;53.160;8.214;2022-08-19T00:54:21;15.30;99.90
23267;DHT22;11802;53.160;8.214;2022-08-19T00:56:48;15.30;99.90
23267;DHT22;11802;53.160;8.214;2022-08-19T00:59:16;15.30;99.90
23267;DHT22;11802;53.160;8.214;2022-08-19T01:01:44;15.30;99.90
23267;DHT22;11802;53.160;8.214;2022-08-19T01:04:10;15.20;99.90
23267;DHT22;11802;53.160;8.214;2022-08-19T01:06:36;15.10;99.90
23267;DHT22;11802;53.160;8.214;2022-08-19T01:09:06;15.10;99.90
23267;DHT22;11802;53.160;8.214;2022-08-19T01:11:35;15.10;99.90
23267;DHT22;11802;53.160;8.214;2022-08-19T01:14:07;15.00;99.90
23267;DHT22;11802;53.160;8.214;2022-08-19T01:16:35;15.10;99.90
23267;DHT22;11802;53.160;8.214;2022-08-19T01:19:18;15.00;99.90
23267;DHT22;11802;53.160;8.214;2022-08-19T01:22:00;15.00;99.90
23267;DHT22;11802;53.160;8.214;2022-08-19T01:24:35;15.10;99.90
23267;DHT22;11802;53.160;8.214;2022-08-19T01:27:05;15.10;99.90
23267;DHT22;11802;53.160;8.214;2022-08-19T01:29:31;15.00;99.90
23267;DHT22;11802;53.160;8.214;2022-08-19T01:31:58;14.90;99.90
23267;DHT22;11802;53.160;8.214;2022-08-19T01:34:23;14.90;99.90
23267;DHT22;11802;53.160;8.214;2022-08-19T01:36:49;14.90;99.90
23267;DHT22;11802;53.160;8.214;2022-08-19T01:39:24;14.90;99.90
23267;DHT22;11802;53.160;8.214;2022-08-19T01:41:50;14.80;99.90
23267;DHT22;11802;53.160;8.214;2022-08-19T01:44:16;14.80;99.90
23267;DHT22;11802;53.160;8.214;2022-08-19T01:46:47;14.80;99.90
23267;DHT22;11802;53.160;8.214;2022-08-19T01:49:13;14.70;99.90
23267;DHT22;11802;53.160;8.214;2022-08-19T01:51:40;14.70;99.90
23267;DHT22;11802;53.160;8.214;2022-08-19T01:54:06;14.70;99.90
23267;DHT22;11802;53.160;8.214;2022-08-19T01:56:31;14.60;99.90
23267;DHT22;11802;53.160;8.214;2022-08-19T01:59:10;14.70;99.90
23267;DHT22;11802;53.160;8.214;2022-08-19T02:01:36;14.60;99.90
23267;DHT22;11802;53.160;8.214;2022-08-19T02:04:02;14.60;99.90
23267;DHT22;11802;53.160;8.214;2022-08-19T02:06:28;14.50;99.90
23267;DHT22;11802;53.160;8.214;2022-08-19T02:08:54;14.50;99.90
23267;DHT22;11802;53.160;8.214;2022-08-19T02:11:23;14.50;99.90
23267;DHT22;11802;53.160;8.214;2022-08-19T02:13:52;14.40;99.90
23267;DHT22;11802;53.160;8.214;2022-08-19T02:16:18;14.40;99.90
23267;DHT22;11802;53.160;8.214;2022-08-19T02:18:45;14.40;99.90
23267;DHT22;11802;53.160;8.214;2022-08-19T02:21:10;14.40;99.90
23267;DHT22;11802;53.160;8.214;2022-08-19T02:23:36;14.30;99.90
23267;DHT22;11802;53.160;8.214;2022-08-19T02:26:02;14.30;99.90
23267;DHT22;11802;53.160;8.214;2022-08-19T02:28:27;14.30;99.90
23267;DHT22;11802;53.160;8.214;2022-08-19T02:30:53;14.30;99.90
23267;DHT22;11802;53.160;8.214;2022-08-19T02:33:19;14.30;99.90
23267;DHT22;11802;53.160;8.214;2022-08-19T02:35:45;14.30;99.90
23267;DHT22;11802;53.160;8.214;2022-08-19T02:38:11;14.30;99.90
23267;DHT22;11802;53.160;8.214;2022-08-19T02:41:04;14.20;99.90
23267;DHT22;11802;53.160;8.214;2022-08-19T02:43:31;14.20;99.90
23267;DHT22;11802;53.160;8.214;2022-08-19T02:45:57;14.20;99.90
23267;DHT22;11802;53.160;8.214;2022-08-19T02:48:24;14.20;99.90
23267;DHT22;11802;53.160;8.214;2022-08-19T02:50:52;14.20;99.90
23267;DHT22;11802;53.160;8.214;2022-08-19T02:53:25;14.10;99.90
23267;DHT22;11802;53.160;8.214;2022-08-19T02:55:51;14.10;99.90
23267;DHT22;11802;53.160;8.214;2022-08-19T02:58:18;14.10;99.90
23267;DHT22;11802;53.160;8.214;2022-08-19T03:00:46;14.20;99.90
23267;DHT22;11802;53.160;8.214;2022-08-19T03:03:12;14.10;99.90
23267;DHT22;11802;53.160;8.214;2022-08-19T03:05:38;14.10;99.90
23267;DHT22;11802;53.160;8.214;2022-08-19T03:08:03;14.10;99.90
23267;DHT22;11802;53.160;8.214;2022-08-19T03:10:29;14.10;99.90
23267;DHT22;11802;53.160;8.214;2022-08-19T03:12:55;14.10;99.90
23267;DHT22;11802;53.160;8.214;2022-08-19T03:15:20;14.00;99.90
23267;DHT22;11802;53.160;8.214;2022-08-19T03:17:46;14.00;99.90
23267;DHT22;11802;53.160;8.214;2022-08-19T03:20:11;13.90;99.90
23267;DHT22;11802;53.160;8.214;2022-08-19T03:22:37;13.90;99.90
23267;DHT22;11802;53.160;8.214;2022-08-19T03:25:02;13.90;99.90
23267;DHT22;11802;53.160;8.214;2022-08-19T03:27:28;13.90;99.90
23267;DHT22;11802;53.160;8.214;2022-08-19T03:29:55;13.90;99.90
23267;DHT22;11802;53.160;8.214;2022-08-19T03:32:20;14.00;99.90
23267;DHT22;11802;53.160;8.214;2022-08-19T03:34:47;14.00;99.90
23267;DHT22;11802;53.160;8.214;2022-08-19T03:37:13;14.10;99.90
23267;DHT22;11802;53.160;8.214;2022-08-19T03:39:40;14.00;99.90
23267;DHT22;11802;53.160;8.214;2022-08-19T03:42:06;14.00;99.90
23267;DHT22;11802;53.160;8.214;2022-08-19T03:44:32;14.00;99.90
23267;DHT22;11802;53.160;8.214;2022-08-19T03:46:59;14.00;99.90
23267;DHT22;11802;53.160;8.214;2022-08-19T03:49:29;14.00;99.90
23267;DHT22;11802;53.160;8.214;2022-08-19T03:51:57;13.90;99.90
23267;DHT22;11802;53.160;8.214;2022-08-19T03:54:24;13.90;99.90
23267;DHT22;11802;53.160;8.214;2022-08-19T03:56:51;13.80;99.90
23267;DHT22;11802;53.160;8.214;2022-08-19T03:59:30;13.70;99.90
23267;DHT22;11802;53.160;8.214;2022-08-19T04:01:57;13.70;99.90
23267;DHT22;11802;53.160;8.214;2022-08-19T04:04:24;13.70;99.90
23267;DHT22;11802;53.160;8.214;2022-08-19T04:06:51;13.60;99.90
23267;DHT22;11802;53.160;8.214;2022-08-19T04:09:18;13.60;99.90
23267;DHT22;11802;53.160;8.214;2022-08-19T04:11:50;13.60;99.90
23267;DHT22;11802;53.160;8.214;2022-08-19T04:14:21;13.60;99.90
23267;DHT22;11802;53.160;8.214;2022-08-19T04:16:48;13.60;99.90
23267;DHT22;11802;53.160;8.214;2022-08-19T04:19:15;13.70;99.90
23267;DHT22;11802;53.160;8.214;2022-08-19T04:21:43;13.70;99.90
23267;DHT22;11802;53.160;8.214;2022-08-19T04:24:10;13.70;99.90
23267;DHT22;11802;53.160;8.214;2022-08-19T04:26:36;13.70;99.90
23267;DHT22;11802;53.160;8.214;2022-08-19T04:29:06;13.80;99.90
23267;DHT22;11802;53.160;8.214;2022-08-19T04:31:33;13.80;99.90
23267;DHT22;11802;53.160;8.214;2022-08-19T04:34:05;13.70;99.90
23267;DHT22;11802;53.160;8.214;2022-08-19T04:36:34;13.70;99.90
23267;DHT22;11802;53.160;8.214;2022-08-19T04:39:03;13.70;99.90
23267;DHT22;11802;53.160;8.214;2022-08-19T04:41:29;13.70;99.90
23267;DHT22;11802;53.160;8.214;2022-08-19T04:44:13;13.80;99.90
23267;DHT22;11802;53.160;8.214;2022-08-19T04:46:39;13.80;99.90
23267;DHT22;11802;53.160;8.214;2022-08-19T04:49:06;13.90;99.90
23267;DHT22;11802;53.160;8.214;2022-08-19T04:51:33;14.00;99.90
23267;DHT22;11802;53.160;8.214;2022-08-19T04:54:00;14.00;99.90
23267;DHT22;11802;53.160;8.214;2022-08-19T04:56:26;14.10;99.90
23267;DHT22;11802;53.160;8.214;2022-08-19T04:58:54;14.20;99.90
23267;DHT22;11802;53.160;8.214;2022-08-19T05:01:24;14.30;99.90
23267;DHT22;11802;53.160;8.214;2022-08-19T05:03:50;14.40;99.90
23267;DHT22;11802;53.160;8.214;2022-08-19T05:06:18;14.50;99.90
23267;DHT22;11802;53.160;8.214;2022-08-19T05:08:44;14.60;99.90
23267;DHT22;11802;53.160;8.214;2022-08-19T05:13:38;14.90;99.90
23267;DHT22;11802;53.160;8.214;2022-08-19T05:16:04;15.00;99.90
23267;DHT22;11802;53.160;8.214;2022-08-19T05:18:30;15.10;99.90
23267;DHT22;11802;53.160;8.214;2022-08-19T05:21:17;15.20;99.90
23267;DHT22;11802;53.160;8.214;2022-08-19T05:24:02;15.40;99.90
23267;DHT22;11802;53.160;8.214;2022-08-19T05:26:27;15.50;99.90
23267;DHT22;11802;53.160;8.214;2022-08-19T05:28:53;15.60;99.90
23267;DHT22;11802;53.160;8.214;2022-08-19T05:31:19;15.80;99.90
23267;DHT22;11802;53.160;8.214;2022-08-19T05:33:45;15.90;99.90
23267;DHT22;11802;53.160;8.214;2022-08-19T05:36:11;16.10;99.90
23267;DHT22;11802;53.160;8.214;2022-08-19T05:38:37;16.30;99.90
23267;DHT22;11802;53.160;8.214;2022-08-19T05:41:07;16.50;99.90
23267;DHT22;11802;53.160;8.214;2022-08-19T05:43:33;16.60;99.90
23267;DHT22;11802;53.160;8.214;2022-08-19T05:45:59;16.60;99.90
23267;DHT22;11802;53.160;8.214;2022-08-19T05:48:25;16.80;99.90
23267;DHT22;11802;53.160;8.214;2022-08-19T05:50:51;16.90;99.90
23267;DHT22;11802;53.160;8.214;2022-08-19T05:53:18;17.00;99.90
23267;DHT22;11802;53.160;8.214;2022-08-19T05:55:44;17.20;99.90
23267;DHT22;11802;53.160;8.214;2022-08-19T05:58:09;17.30;99.90
23267;DHT22;11802;53.160;8.214;2022-08-19T06:00:36;17.50;99.90
23267;DHT22;11802;53.160;8.214;2022-08-19T06:03:02;17.60;99.90
23267;DHT22;11802;53.160;8.214;2022-08-19T06:05:30;17.80;99.90
23267;DHT22;11802;53.160;8.214;2022-08-19T06:07:55;18.20;99.90
23267;DHT22;11802;53.160;8.214;2022-08-19T06:10:21;18.60;99.90
23267;DHT22;11802;53.160;8.214;2022-08-19T06:12:47;18.90;99.90
23267;DHT22;11802;53.160;8.214;2022-08-19T06:15:14;19.20;99.90
23267;DHT22;11802;53.160;8.214;2022-08-19T06:17:40;19.30;99.90
23267;DHT22;11802;53.160;8.214;2022-08-19T06:20:09;19.40;99.90
23267;DHT22;11802;53.160;8.214;2022-08-19T06:22:38;19.70;99.90
23267;DHT22;11802;53.160;8.214;2022-08-19T06:25:04;20.90;99.90
23267;DHT22;11802;53.160;8.214;2022-08-19T06:27:30;22.60;99.90
23267;DHT22;11802;53.160;8.214;2022-08-19T06:29:57;24.20;99.90
23267;DHT22;11802;53.160;8.214;2022-08-19T06:32:23;25.70;99.90
23267;DHT22;11802;53.160;8.214;2022-08-19T06:34:48;27.00;99.90
23267;DHT22;11802;53.160;8.214;2022-08-19T06:37:14;28.50;99.90
23267;DHT22;11802;53.160;8.214;2022-08-19T06:39:42;29.40;99.90
23267;DHT22;11802;53.160;8.214;2022-08-19T06:42:08;30.10;99.90
23267;DHT22;11802;53.160;8.214;2022-08-19T06:44:37;30.80;99.90
23267;DHT22;11802;53.160;8.214;2022-08-19T06:47:07;30.50;99.90
23267;DHT22;11802;53.160;8.214;2022-08-19T06:49:33;31.10;99.90
23267;DHT22;11802;53.160;8.214;2022-08-19T06:52:00;31.30;99.90
23267;DHT22;11802;53.160;8.214;2022-08-19T06:54:26;31.30;99.90
23267;DHT22;11802;53.160;8.214;2022-08-19T06:56:53;32.10;99.90
23267;DHT22;11802;53.160;8.214;2022-08-19T06:59:21;32.40;99.90
23267;DHT22;11802;53.160;8.214;2022-08-19T07:01:50;32.70;99.90
23267;DHT22;11802;53.160;8.214;2022-08-19T07:04:22;33.50;99.90
23267;DHT22;11802;53.160;8.214;2022-08-19T07:06:48;33.80;99.90
23267;DHT22;11802;53.160;8.214;2022-08-19T07:09:16;33.80;99.90
23267;DHT22;11802;53.160;8.214;2022-08-19T07:11:47;33.30;99.90
23267;DHT22;11802;53.160;8.214;2022-08-19T07:14:15;33.20;99.90
23267;DHT22;11802;53.160;8.214;2022-08-19T07:16:44;33.60;99.90
23267;DHT22;11802;53.160;8.214;2022-08-19T07:19:11;33.90;99.90
23267;DHT22;11802;53.160;8.214;2022-08-19T07:21:37;33.60;99.90
23267;DHT22;11802;53.160;8.214;2022-08-19T07:24:03;33.70;99.90
23267;DHT22;11802;53.160;8.214;2022-08-19T07:26:32;34.10;99.90
23267;DHT22;11802;53.160;8.214;2022-08-19T07:28:58;33.60;99.90
23267;DHT22;11802;53.160;8.214;2022-08-19T07:31:27;34.10;99.90
23267;DHT22;11802;53.160;8.214;2022-08-19T07:33:55;34.50;99.90
23267;DHT22;11802;53.160;8.214;2022-08-19T07:36:24;34.60;98.80
23267;DHT22;11802;53.160;8.214;2022-08-19T07:38:51;35.20;98.10
23267;DHT22;11802;53.160;8.214;2022-08-19T07:41:21;35.40;97.60
23267;DHT22;11802;53.160;8.214;2022-08-19T07:43:47;35.30;96.70
23267;DHT22;11802;53.160;8.214;2022-08-19T07:46:14;35.50;95.90
23267;DHT22;11802;53.160;8.214;2022-08-19T07:48:44;35.70;95.20
23267;DHT22;11802;53.160;8.214;2022-08-19T07:51:14;36.10;94.30
23267;DHT22;11802;53.160;8.214;2022-08-19T07:53:40;36.00;93.70
23267;DHT22;11802;53.160;8.214;2022-08-19T07:56:06;35.60;94.00
23267;DHT22;11802;53.160;8.214;2022-08-19T07:58:36;35.80;93.10
23267;DHT22;11802;53.160;8.214;2022-08-19T08:01:03;35.00;93.40
23267;DHT22;11802;53.160;8.214;2022-08-19T08:03:29;34.90;93.90
23267;DHT22;11802;53.160;8.214;2022-08-19T08:06:30;35.00;93.80
23267;DHT22;11802;53.160;8.214;2022-08-19T08:09:17;34.40;94.50
23267;DHT22;11802;53.160;8.214;2022-08-19T08:11:54;34.50;93.50
23267;DHT22;11802;53.160;8.214;2022-08-19T08:14:47;34.20;94.00
23267;DHT22;11802;53.160;8.214;2022-08-19T08:17:15;34.40;94.10
23267;DHT22;11802;53.160;8.214;2022-08-19T08:19:40;34.70;94.20
23267;DHT22;11802;53.160;8.214;2022-08-19T08:22:07;35.30;93.50
23267;DHT22;11802;53.160;8.214;2022-08-19T08:24:33;35.30;92.80
23267;DHT22;11802;53.160;8.214;2022-08-19T08:27:01;35.60;92.40
23267;DHT22;11802;53.160;8.214;2022-08-19T08:29:30;35.80;91.70
23267;DHT22;11802;53.160;8.214;2022-08-19T08:31:56;34.80;92.20
23267;DHT22;11802;53.160;8.214;2022-08-19T08:34:22;33.90;93.00
23267;DHT22;11802;53.160;8.214;2022-08-19T08:36:47;32.70;94.10
23267;DHT22;11802;53.160;8.214;2022-08-19T08:39:15;31.40;95.60
23267;DHT22;11802;53.160;8.214;2022-08-19T08:41:53;30.50;96.80
23267;DHT22;11802;53.160;8.214;2022-08-19T08:44:28;30.40;98.20
23267;DHT22;11802;53.160;8.214;2022-08-19T08:47:00;30.50;98.20
23267;DHT22;11802;53.160;8.214;2022-08-19T08:49:56;31.30;97.80
23267;DHT22;11802;53.160;8.214;2022-08-19T08:52:28;32.70;96.20
23267;DHT22;11802;53.160;8.214;2022-08-19T08:54:57;33.90;94.70
23267;DHT22;11802;53.160;8.214;2022-08-19T08:57:35;34.00;93.70
23267;DHT22;11802;53.160;8.214;2022-08-19T09:00:06;33.70;93.90
23267;DHT22;11802;53.160;8.214;2022-08-19T09:02:32;33.60;93.80
23267;DHT22;11802;53.160;8.214;2022-08-19T09:04:58;33.10;94.30
23267;DHT22;11802;53.160;8.214;2022-08-19T09:15:38;31.40;96.60
23267;DHT22;11802;53.160;8.214;2022-08-19T09:18:06;30.60;97.60
23267;DHT22;11802;53.160;8.214;2022-08-19T09:20:33;30.80;98.60
23267;DHT22;11802;53.160;8.214;2022-08-19T09:22:59;32.00;96.90
23267;DHT22;11802;53.160;8.214;2022-08-19T09:25:25;32.60;96.10
23267;DHT22;11802;53.160;8.214;2022-08-19T09:27:52;32.90;95.60
23267;DHT22;11802;53.160;8.214;2022-08-19T09:30:27;33.50;94.90
23267;DHT22;11802;53.160;8.214;2022-08-19T09:32:54;33.60;93.80
23267;DHT22;11802;53.160;8.214;2022-08-19T09:35:22;34.00;93.60
23267;DHT22;11802;53.160;8.214;2022-08-19T09:37:49;34.80;92.80
23267;DHT22;11802;53.160;8.214;2022-08-19T09:40:15;34.70;91.90
23267;DHT22;11802;53.160;8.214;2022-08-19T09:42:42;33.70;92.80
23267;DHT22;11802;53.160;8.214;2022-08-19T09:45:09;33.90;92.80
23267;DHT22;11802;53.160;8.214;2022-08-19T09:47:35;32.90;93.30
23267;DHT22;11802;53.160;8.214;2022-08-19T09:50:04;32.90;93.80
23267;DHT22;11802;53.160;8.214;2022-08-19T09:52:31;32.70;93.60
23267;DHT22;11802;53.160;8.214;2022-08-19T09:54:56;32.30;93.70
23267;DHT22;11802;53.160;8.214;2022-08-19T09:57:22;32.40;93.80
23267;DHT22;11802;53.160;8.214;2022-08-19T09:59:47;31.00;94.70
23267;DHT22;11802;53.160;8.214;2022-08-19T10:02:13;31.00;95.40
23267;DHT22;11802;53.160;8.214;2022-08-19T10:04:39;31.60;94.40
23267;DHT22;11802;53.160;8.214;2022-08-19T10:07:23;31.20;94.20
23267;DHT22;11802;53.160;8.214;2022-08-19T10:09:48;31.40;94.50
23267;DHT22;11802;53.160;8.214;2022-08-19T10:12:14;32.00;94.20
23267;DHT22;11802;53.160;8.214;2022-08-19T10:14:40;32.30;93.20
23267;DHT22;11802;53.160;8.214;2022-08-19T10:17:06;32.60;92.60
23267;DHT22;11802;53.160;8.214;2022-08-19T10:19:32;33.00;92.50
23267;DHT22;11802;53.160;8.214;2022-08-19T10:22:03;33.20;91.80
23267;DHT22;11802;53.160;8.214;2022-08-19T10:24:29;33.20;91.60
23267;DHT22;11802;53.160;8.214;2022-08-19T10:26:56;33.40;91.50
23267;DHT22;11802;53.160;8.214;2022-08-19T10:29:22;33.30;91.00
23267;DHT22;11802;53.160;8.214;2022-08-19T10:31:47;33.10;91.40
23267;DHT22;11802;53.160;8.214;2022-08-19T10:34:13;32.50;91.80
23267;DHT22;11802;53.160;8.214;2022-08-19T10:36:39;32.90;92.40
23267;DHT22;11802;53.160;8.214;2022-08-19T10:39:09;33.20;92.00
23267;DHT22;11802;53.160;8.214;2022-08-19T10:41:37;33.00;91.40
23267;DHT22;11802;53.160;8.214;2022-08-19T10:44:07;33.20;91.30
23267;DHT22;11802;53.160;8.214;2022-08-19T10:46:36;33.50;91.60
23267;DHT22;11802;53.160;8.214;2022-08-19T10:49:03;33.50;91.70
23267;DHT22;11802;53.160;8.214;2022-08-19T10:51:30;33.10;91.50
23267;DHT22;11802;53.160;8.214;2022-08-19T10:54:14;33.20;90.90
23267;DHT22;11802;53.160;8.214;2022-08-19T10:56:44;33.70;90.60
23267;DHT22;11802;53.160;8.214;2022-08-19T10:59:27;33.30;90.60
23267;DHT22;11802;53.160;8.214;2022-08-19T11:01:58;32.90;91.30
23267;DHT22;11802;53.160;8.214;2022-08-19T11:04:24;33.20;89.40
23267;DHT22;11802;53.160;8.214;2022-08-19T11:06:50;32.90;90.20
23267;DHT22;11802;53.160;8.214;2022-08-19T11:09:18;32.90;90.70
23267;DHT22;11802;53.160;8.214;2022-08-19T11:11:45;33.00;91.00
23267;DHT22;11802;53.160;8.214;2022-08-19T11:14:16;32.60;92.00
23267;DHT22;11802;53.160;8.214;2022-08-19T11:16:43;32.70;91.60
23267;DHT22;11802;53.160;8.214;2022-08-19T11:19:10;32.20;91.70
23267;DHT22;11802;53.160;8.214;2022-08-19T11:21:39;32.20;92.00
23267;DHT22;11802;53.160;8.214;2022-08-19T11:24:10;32.70;90.70
23267;DHT22;11802;53.160;8.214;2022-08-19T11:26:38;33.10;90.10
23267;DHT22;11802;53.160;8.214;2022-08-19T11:29:05;32.60;90.70
23267;DHT22;11802;53.160;8.214;2022-08-19T11:31:34;32.30;91.50
23267;DHT22;11802;53.160;8.214;2022-08-19T11:34:03;33.20;91.40
23267;DHT22;11802;53.160;8.214;2022-08-19T11:36:29;33.50;91.30
23267;DHT22;11802;53.160;8.214;2022-08-19T11:38:56;33.20;90.90
23267;DHT22;11802;53.160;8.214;2022-08-19T11:41:23;33.50;90.80
23267;DHT22;11802;53.160;8.214;2022-08-19T11:43:49;33.90;90.90
23267;DHT22;11802;53.160;8.214;2022-08-19T11:46:16;33.50;90.90
23267;DHT22;11802;53.160;8.214;2022-08-19T11:48:42;33.50;91.30
23267;DHT22;11802;53.160;8.214;2022-08-19T11:51:10;33.40;91.50
23267;DHT22;11802;53.160;8.214;2022-08-19T11:53:36;33.60;91.00
23267;DHT22;11802;53.160;8.214;2022-08-19T11:56:04;33.60;90.80
23267;DHT22;11802;53.160;8.214;2022-08-19T11:58:29;33.20;91.00
23267;DHT22;11802;53.160;8.214;2022-08-19T12:00:55;33.10;91.00
23267;DHT22;11802;53.160;8.214;2022-08-19T12:03:21;32.70;90.80
23267;DHT22;11802;53.160;8.214;2022-08-19T12:05:47;32.70;91.70
23267;DHT22;11802;53.160;8.214;2022-08-19T12:08:13;32.80;91.10
23267;DHT22;11802;53.160;8.214;2022-08-19T12:10:39;32.80;91.70
23267;DHT22;11802;53.160;8.214;2022-08-19T12:13:07;32.90;91.20
23267;DHT22;11802;53.160;8.214;2022-08-19T12:15:37;33.00;90.80
23267;DHT22;11802;53.160;8.214;2022-08-19T12:18:04;32.90;91.70
23267;DHT22;11802;53.160;8.214;2022-08-19T12:20:30;32.90;91.30
23267;DHT22;11802;53.160;8.214;2022-08-19T12:22:55;32.80;91.40
23267;DHT22;11802;53.160;8.214;2022-08-19T12:25:21;32.50;91.50
23267;DHT22;11802;53.160;8.214;2022-08-19T12:27:47;32.20;91.90
23267;DHT22;11802;53.160;8.214;2022-08-19T12:30:13;32.40;92.10
23267;DHT22;11802;53.160;8.214;2022-08-19T12:32:39;32.10;92.10
23267;DHT22;11802;53.160;8.214;2022-08-19T12:35:06;32.30;92.00
23267;DHT22;11802;53.160;8.214;2022-08-19T12:37:32;32.30;91.60
23267;DHT22;11802;53.160;8.214;2022-08-19T12:39:58;32.10;91.10
23267;DHT22;11802;53.160;8.214;2022-08-19T12:42:24;32.00;91.70
23267;DHT22;11802;53.160;8.214;2022-08-19T12:44:49;32.20;92.00
23267;DHT22;11802;53.160;8.214;2022-08-19T12:47:17;32.10;91.10
23267;DHT22;11802;53.160;8.214;2022-08-19T12:49:42;32.00;91.80
23267;DHT22;11802;53.160;8.214;2022-08-19T12:52:09;32.10;94.00
23267;DHT22;11802;53.160;8.214;2022-08-19T12:54:36;32.00;92.00
23267;DHT22;11802;53.160;8.214;2022-08-19T12:57:09;31.70;92.00
23267;DHT22;11802;53.160;8.214;2022-08-19T12:59:36;31.40;92.50
23267;DHT22;11802;53.160;8.214;2022-08-19T13:02:03;31.20;92.80
23267;DHT22;11802;53.160;8.214;2022-08-19T13:04:30;30.60;95.60
23267;DHT22;11802;53.160;8.214;2022-08-19T13:06:56;30.90;95.30
23267;DHT22;11802;53.160;8.214;2022-08-19T13:09:23;31.20;95.10
23267;DHT22;11802;53.160;8.214;2022-08-19T13:11:49;31.00;94.30
23267;DHT22;11802;53.160;8.214;2022-08-19T13:14:14;30.50;94.90
23267;DHT22;11802;53.160;8.214;2022-08-19T13:16:40;30.40;95.70
23267;DHT22;11802;53.160;8.214;2022-08-19T13:19:06;30.70;95.60
23267;DHT22;11802;53.160;8.214;2022-08-19T13:21:33;30.80;95.10
23267;DHT22;11802;53.160;8.214;2022-08-19T13:23:58;30.80;95.90
23267;DHT22;11802;53.160;8.214;2022-08-19T13:26:24;30.80;95.20
23267;DHT22;11802;53.160;8.214;2022-08-19T13:28:50;30.70;94.10
23267;DHT22;11802;53.160;8.214;2022-08-19T13:31:35;30.60;94.30
23267;DHT22;11802;53.160;8.214;2022-08-19T13:34:27;29.50;94.50
23267;DHT22;11802;53.160;8.214;2022-08-19T13:36:53;29.80;95.90
23267;DHT22;11802;53.160;8.214;2022-08-19T13:39:19;30.00;95.60
23267;DHT22;11802;53.160;8.214;2022-08-19T13:41:46;29.80;93.30
23267;DHT22;11802;53.160;8.214;2022-08-19T13:44:18;29.70;94.00
23267;DHT22;11802;53.160;8.214;2022-08-19T13:46:45;29.80;95.80
23267;DHT22;11802;53.160;8.214;2022-08-19T13:49:12;29.80;94.60
23267;DHT22;11802;53.160;8.214;2022-08-19T13:51:39;29.80;94.60
23267;DHT22;11802;53.160;8.214;2022-08-19T13:54:06;29.80;94.30
23267;DHT22;11802;53.160;8.214;2022-08-19T13:56:32;29.50;93.70
23267;DHT22;11802;53.160;8.214;2022-08-19T13:58:57;29.70;94.20
23267;DHT22;11802;53.160;8.214;2022-08-19T14:01:24;29.70;93.40
23267;DHT22;11802;53.160;8.214;2022-08-19T14:03:49;29.70;93.50
23267;DHT22;11802;53.160;8.214;2022-08-19T14:06:15;29.40;93.90
23267;DHT22;11802;53.160;8.214;2022-08-19T14:08:42;29.10;94.00
23267;DHT22;11802;53.160;8.214;2022-08-19T14:11:08;29.20;94.60
23267;DHT22;11802;53.160;8.214;2022-08-19T14:13:34;29.10;93.90
23267;DHT22;11802;53.160;8.214;2022-08-19T14:16:00;29.00;93.90
23267;DHT22;11802;53.160;8.214;2022-08-19T14:18:26;29.00;94.80
23267;DHT22;11802;53.160;8.214;2022-08-19T14:20:52;29.00;95.70
23267;DHT22;11802;53.160;8.214;2022-08-19T14:23:17;28.90;95.30
23267;DHT22;11802;53.160;8.214;2022-08-19T14:25:43;28.60;95.70
23267;DHT22;11802;53.160;8.214;2022-08-19T14:28:10;28.50;96.50
23267;DHT22;11802;53.160;8.214;2022-08-19T14:30:36;28.40;98.10
23267;DHT22;11802;53.160;8.214;2022-08-19T14:33:04;28.40;97.30
23267;DHT22;11802;53.160;8.214;2022-08-19T14:35:31;28.50;96.40
23267;DHT22;11802;53.160;8.214;2022-08-19T14:38:00;28.60;97.80
23267;DHT22;11802;53.160;8.214;2022-08-19T14:40:27;28.90;97.20
23267;DHT22;11802;53.160;8.214;2022-08-19T14:42:54;29.00;95.30
23267;DHT22;11802;53.160;8.214;2022-08-19T14:45:25;28.70;95.70
23267;DHT22;11802;53.160;8.214;2022-08-19T14:47:51;28.30;96.00
23267;DHT22;11802;53.160;8.214;2022-08-19T14:50:16;28.30;96.60
23267;DHT22;11802;53.160;8.214;2022-08-19T14:52:42;28.40;97.70
23267;DHT22;11802;53.160;8.214;2022-08-19T14:55:09;28.60;98.60
23267;DHT22;11802;53.160;8.214;2022-08-19T14:57:34;28.40;97.00
23267;DHT22;11802;53.160;8.214;2022-08-19T15:00:00;28.40;97.70
23267;DHT22;11802;53.160;8.214;2022-08-19T15:02:25;28.30;98.10
23267;DHT22;11802;53.160;8.214;2022-08-19T15:04:51;28.40;97.60
23267;DHT22;11802;53.160;8.214;2022-08-19T15:07:17;28.30;97.00
23267;DHT22;11802;53.160;8.214;2022-08-19T15:09:42;28.10;97.30
23267;DHT22;11802;53.160;8.214;2022-08-19T15:12:08;28.00;98.10
23267;DHT22;11802;53.160;8.214;2022-08-19T15:14:36;28.10;97.40
23267;DHT22;11802;53.160;8.214;2022-08-19T15:17:04;28.00;97.90
23267;DHT22;11802;53.160;8.214;2022-08-19T15:19:31;27.90;99.10
23267;DHT22;11802;53.160;8.214;2022-08-19T15:21:57;27.90;99.70
23267;DHT22;11802;53.160;8.214;2022-08-19T15:24:23;27.80;99.30
23267;DHT22;11802;53.160;8.214;2022-08-19T15:26:51;27.60;99.90
23267;DHT22;11802;53.160;8.214;2022-08-19T15:29:17;27.60;99.90
23267;DHT22;11802;53.160;8.214;2022-08-19T15:31:43;27.60;99.90
23267;DHT22;11802;53.160;8.214;2022-08-19T15:34:08;27.80;99.90
23267;DHT22;11802;53.160;8.214;2022-08-19T15:36:35;27.90;99.90
23267;DHT22;11802;53.160;8.214;2022-08-19T15:39:01;28.00;99.90
23267;DHT22;11802;53.160;8.214;2022-08-19T15:41:29;28.00;99.90
23267;DHT22;11802;53.160;8.214;2022-08-19T15:43:56;28.00;99.90